Warm River, Idaho
Current Conditions -  °F | °C
As of 5:56 PM on Tuesday 25 Nov 2014 (Local Time) from KDIJ Reporting Station
Unknown Precip Unknown Precip  
Wind Chill: 31°   Ceiling: 1800
Heat Index: 37°   Visibility: 10mi
Dew Point: 35°   Wind: 8mph
Humidity: 93%   Direction: 250°WSW
Pressure: 30.09"   Gusts: NA
Location:  44.0126°N, 111.37°W
Report Text: KDIJ 260056Z AUTO 25007KT 10SM UP BKN018 BKN025 OVC036 03/02 A3009 RMK AO2 T00270016 UPB15 P0000 SLP182
Loading
Personal Weather Stations






























Interactive Weather Map New forecast layout! Learn more

10-Day Weather Forecast

Advertisements
Track Severe Weather on mobile